Time;durP1;ratioP1;P1;durP2;ratioP2;P2;SDS_P1;SDS_P2;PMS_P1;PMS_P2;Temp;Humidity;BMP_temperature;BMP_pressure;BME280_temperature;BME280_humidity;BME280_pressure;Samples;Min_cycle;Max_cycle;Signal;HPM_P1;HPM_P2
2022/02/25 00:01:37;;;;;;;2.30;1.47;;;;;;;1.12;87.92;95755.97;5064690;28;20197;-81
2022/02/25 00:04:03;;;;;;;2.63;1.17;;;;;;;0.92;88.44;95757.06;5037163;28;20181;-81
2022/02/25 00:06:28;;;;;;;4.63;1.70;;;;;;;0.98;88.29;95753.34;5036809;28;20262;-81
2022/02/25 00:08:53;;;;;;;2.83;1.17;;;;;;;0.93;89.53;95774.06;5037654;28;20274;-81
2022/02/25 00:11:19;;;;;;;3.90;1.50;;;;;;;0.90;89.98;95786.19;5052763;28;20194;-81
2022/02/25 00:13:44;;;;;;;1.37;1.10;;;;;;;0.91;90.16;95786.09;5036867;28;20207;-81
2022/02/25 00:16:09;;;;;;;2.03;1.40;;;;;;;0.80;90.64;95807.13;5036907;28;20587;-81
2022/02/25 00:18:35;;;;;;;4.60;1.30;;;;;;;0.83;90.61;95812.06;5035769;28;20182;-81
2022/02/25 00:21:00;;;;;;;4.10;1.40;;;;;;;0.83;91.02;95798.47;5036045;28;20185;-81
2022/02/25 00:23:25;;;;;;;2.10;1.40;;;;;;;0.74;91.74;95812.56;5019326;28;20206;-81
2022/02/25 00:25:50;;;;;;;3.83;1.33;;;;;;;0.71;90.92;95820.41;5037064;28;20726;-81
2022/02/25 00:28:16;;;;;;;4.33;1.50;;;;;;;0.69;90.85;95821.38;5036366;28;20260;-81
2022/02/25 00:30:41;;;;;;;4.53;1.40;;;;;;;0.72;90.13;95824.63;5036459;28;20182;-81
2022/02/25 00:33:06;;;;;;;2.57;1.40;;;;;;;0.81;89.68;95834.34;5036108;28;20564;-81
2022/02/25 00:35:32;;;;;;;2.10;1.43;;;;;;;0.68;90.08;95841.00;5036625;28;20174;-81
2022/02/25 00:37:57;;;;;;;6.67;1.60;;;;;;;0.71;88.46;95845.16;5036694;28;20657;-81
2022/02/25 00:40:22;;;;;;;3.57;1.30;;;;;;;0.64;88.92;95848.94;5020402;28;20189;-81
2022/02/25 00:42:48;;;;;;;2.63;1.37;;;;;;;0.70;88.19;95851.13;5019390;28;20189;-81
2022/02/25 00:45:13;;;;;;;2.27;1.40;;;;;;;0.67;88.32;95853.88;5036010;28;20701;-81
2022/02/25 00:47:38;;;;;;;4.73;1.57;;;;;;;0.73;88.62;95861.22;5036630;28;20645;-81
2022/02/25 00:50:06;;;;;;;3.53;1.50;;;;;;;0.73;89.28;95868.88;5036145;28;20177;-80
2022/02/25 00:52:31;;;;;;;3.67;1.43;;;;;;;0.66;89.17;95865.00;5035354;28;20216;-81
2022/02/25 00:54:56;;;;;;;2.77;1.30;;;;;;;0.62;90.35;95874.56;5036444;28;20539;-81
2022/02/25 00:57:23;;;;;;;8.27;1.50;;;;;;;0.56;89.90;95874.88;5019369;28;20201;-80
2022/02/25 00:59:48;;;;;;;4.47;1.30;;;;;;;0.65;89.76;95869.28;5019547;28;20194;-80
2022/02/25 01:02:14;;;;;;;2.33;1.23;;;;;;;0.66;89.20;95875.22;5035941;28;20208;-80
2022/02/25 01:04:39;;;;;;;2.47;1.20;;;;;;;0.54;88.80;95879.25;5036118;28;20200;-80
2022/02/25 01:07:04;;;;;;;4.93;1.57;;;;;;;0.50;89.68;95880.28;5019860;28;20186;-81
2022/02/25 01:09:30;;;;;;;3.90;1.40;;;;;;;0.39;89.62;95878.28;5020127;28;20533;-81
2022/02/25 01:11:55;;;;;;;4.93;1.30;;;;;;;0.48;88.48;95882.09;5035746;28;20224;-80
2022/02/25 01:14:20;;;;;;;4.33;1.30;;;;;;;0.41;88.01;95881.59;5019882;28;20225;-80
2022/02/25 01:16:46;;;;;;;3.47;1.27;;;;;;;0.39;87.73;95885.94;5020532;28;20704;-81
2022/02/25 01:19:11;;;;;;;3.17;1.10;;;;;;;0.42;87.50;95884.97;5024623;28;20200;-82
2022/02/25 01:21:36;;;;;;;4.63;1.30;;;;;;;0.40;87.08;95894.44;5052392;28;20248;-81
2022/02/25 01:24:02;;;;;;;4.07;1.23;;;;;;;0.34;87.37;95889.63;5053036;28;20197;-81
2022/02/25 01:26:28;;;;;;;4.17;1.40;;;;;;;0.33;87.40;95898.19;5048559;28;20201;-81
2022/02/25 01:28:53;;;;;;;2.73;0.90;;;;;;;0.21;87.58;95897.09;5036721;28;20598;-81
2022/02/25 01:31:19;;;;;;;5.90;1.00;;;;;;;0.18;87.29;95905.75;5019372;28;20205;-81
2022/02/25 01:33:45;;;;;;;3.60;1.20;;;;;;;0.05;87.42;95908.97;5036151;28;20237;-81
2022/02/25 01:36:11;;;;;;;6.73;1.10;;;;;;;0.04;87.78;95910.69;5022924;28;20528;-81
2022/02/25 01:38:36;;;;;;;4.67;1.17;;;;;;;0.10;86.19;95910.41;5037319;28;20205;-81
2022/02/25 01:41:01;;;;;;;3.97;1.10;;;;;;;0.15;86.13;95912.72;5022861;28;20181;-81
2022/02/25 01:43:27;;;;;;;4.57;1.50;;;;;;;0.05;86.27;95909.78;5020251;28;20193;-81
2022/02/25 01:45:52;;;;;;;9.87;1.87;;;;;;;0.02;86.51;95920.16;5036458;28;20181;-81
2022/02/25 01:48:19;;;;;;;6.43;1.20;;;;;;;-0.01;86.98;95925.41;5036751;28;20189;-81
2022/02/25 01:50:45;;;;;;;3.63;0.80;;;;;;;-0.05;86.92;95923.91;5020711;28;20195;-81
2022/02/25 01:53:10;;;;;;;4.97;1.10;;;;;;;-0.11;86.45;95929.31;5035157;28;20209;-81
2022/02/25 01:55:38;;;;;;;5.33;1.20;;;;;;;-0.08;86.85;95929.19;5037272;28;20182;-81
2022/02/25 01:58:04;;;;;;;5.90;1.63;;;;;;;-0.13;86.97;95936.22;5019488;28;20684;-81
2022/02/25 02:00:30;;;;;;;8.67;1.60;;;;;;;-0.19;87.35;95939.06;5019883;28;20186;-82
2022/02/25 02:02:55;;;;;;;4.37;1.13;;;;;;;-0.20;87.58;95945.88;5036172;28;20200;-81
2022/02/25 02:05:21;;;;;;;5.77;1.30;;;;;;;-0.19;87.68;95941.59;5037443;28;20177;-81
2022/02/25 02:07:47;;;;;;;3.63;1.30;;;;;;;-0.23;87.67;95950.31;5036314;28;20224;-81
2022/02/25 02:10:13;;;;;;;5.13;1.47;;;;;;;-0.32;88.26;95946.47;5035998;28;20200;-81
2022/02/25 02:12:39;;;;;;;3.77;1.47;;;;;;;-0.38;88.74;95937.38;5035609;28;20209;-81
2022/02/25 02:15:05;;;;;;;7.67;1.43;;;;;;;-0.35;88.99;95939.78;5037737;28;20214;-81
2022/02/25 02:17:32;;;;;;;3.90;1.67;;;;;;;-0.34;89.13;95950.81;5036398;28;20189;-81
2022/02/25 02:19:57;;;;;;;4.00;1.20;;;;;;;-0.31;89.56;95948.94;5035853;28;20168;-81
2022/02/25 02:22:23;;;;;;;5.23;2.03;;;;;;;-0.19;89.62;95951.81;5035365;28;20562;-81
2022/02/25 02:24:49;;;;;;;1.97;1.07;;;;;;;-0.14;89.95;95944.78;5035504;28;20174;-80
2022/02/25 02:27:14;;;;;;;5.50;1.47;;;;;;;-0.07;89.62;95951.25;5037141;28;20173;-81
2022/02/25 02:29:39;;;;;;;5.60;1.40;;;;;;;-0.04;89.15;95951.91;5035553;28;20205;-80
2022/02/25 02:32:05;;;;;;;10.77;1.63;;;;;;;-0.11;89.54;95949.72;5034537;28;20229;-80
2022/02/25 02:34:30;;;;;;;6.23;1.30;;;;;;;-0.09;89.21;95948.78;5035774;28;20654;-81
2022/02/25 02:36:56;;;;;;;5.33;1.60;;;;;;;-0.09;89.03;95942.81;5036943;28;20177;-81
2022/02/25 02:39:21;;;;;;;5.10;1.27;;;;;;;-0.11;89.50;95954.84;5035836;28;20316;-81
2022/02/25 02:41:46;;;;;;;6.80;1.60;;;;;;;-0.12;89.62;95951.44;5035525;28;20233;-80
2022/02/25 02:44:12;;;;;;;7.20;1.17;;;;;;;-0.11;89.62;95952.28;5040163;28;20182;-80
2022/02/25 02:46:38;;;;;;;7.23;1.60;;;;;;;-0.11;89.13;95949.72;5040477;28;20177;-80
2022/02/25 02:49:04;;;;;;;4.67;1.20;;;;;;;-0.17;89.43;95945.75;5052505;28;20178;-80
2022/02/25 02:51:29;;;;;;;6.27;1.50;;;;;;;-0.11;89.63;95953.09;5035454;28;20210;-80
2022/02/25 02:53:55;;;;;;;10.20;1.50;;;;;;;-0.11;89.53;95949.72;5035115;28;20194;-81
2022/02/25 02:56:21;;;;;;;5.97;1.60;;;;;;;-0.16;89.43;95946.59;5051724;28;20178;-80
2022/02/25 02:58:54;;;;;;;7.27;1.47;;;;;;;-0.15;89.68;95954.16;5036576;28;20240;-80
2022/02/25 03:01:19;;;;;;;6.97;2.07;;;;;;;-0.22;89.78;95951.97;5034526;28;20236;-80
2022/02/25 03:03:45;;;;;;;4.97;1.83;;;;;;;-0.12;89.30;95953.19;5051686;28;20166;-80
2022/02/25 03:06:10;;;;;;;9.90;1.83;;;;;;;-0.15;89.45;95951.59;5034980;28;20177;-80
2022/02/25 03:08:35;;;;;;;6.03;1.57;;;;;;;-0.18;89.55;95963.66;5038315;28;20181;-80
2022/02/25 03:11:01;;;;;;;5.40;1.73;;;;;;;-0.19;89.22;95964.56;5038387;28;20526;-80
2022/02/25 03:13:26;;;;;;;6.47;1.30;;;;;;;-0.21;89.64;95969.75;5054728;28;20213;-80
2022/02/25 03:15:51;;;;;;;7.60;1.40;;;;;;;-0.08;89.67;95975.13;5038144;28;20181;-80
2022/02/25 03:18:16;;;;;;;9.43;1.87;;;;;;;-0.01;89.29;95981.56;5037616;28;20174;-80
2022/02/25 03:20:43;;;;;;;7.37;2.10;;;;;;;-0.03;89.00;95985.94;5038088;28;20169;-80
2022/02/25 03:23:08;;;;;;;6.40;1.60;;;;;;;-0.05;89.52;95983.47;5037357;28;20709;-80
2022/02/25 03:25:34;;;;;;;9.30;1.90;;;;;;;-0.03;89.16;95983.38;5038015;28;20189;-80
2022/02/25 03:27:59;;;;;;;11.07;1.63;;;;;;;-0.02;89.21;95990.13;5039544;28;20186;-81
2022/02/25 03:30:24;;;;;;;7.60;1.70;;;;;;;0.04;88.85;95992.41;5054207;28;20185;-80
2022/02/25 03:32:54;;;;;;;11.67;2.37;;;;;;;-0.02;88.91;95990.97;5036781;28;20578;-80
2022/02/25 03:35:19;;;;;;;7.17;1.60;;;;;;;0.08;88.87;95996.44;5037632;28;20270;-80
2022/02/25 03:37:45;;;;;;;11.60;1.87;;;;;;;0.02;87.83;95996.78;5037664;28;20205;-80
2022/02/25 03:40:11;;;;;;;7.20;2.20;;;;;;;0.03;88.06;95995.88;5053506;28;20185;-80
2022/02/25 03:42:37;;;;;;;8.53;1.80;;;;;;;-0.09;88.02;95989.63;5036884;28;20208;-80
2022/02/25 03:45:04;;;;;;;5.90;2.53;;;;;;;-0.05;87.96;96006.44;5036762;28;20644;-80
2022/02/25 03:47:30;;;;;;;7.63;1.73;;;;;;;-0.01;88.58;96000.28;5036943;28;20552;-80
2022/02/25 03:49:55;;;;;;;7.67;2.33;;;;;;;-0.11;88.37;95995.69;5053003;28;20193;-80
2022/02/25 03:52:21;;;;;;;7.80;1.73;;;;;;;-0.07;88.66;96000.59;5036339;28;20209;-80
2022/02/25 03:54:46;;;;;;;5.53;1.73;;;;;;;-0.15;88.29;96010.31;5036297;28;20685;-80
2022/02/25 03:57:11;;;;;;;6.60;1.90;;;;;;;-0.03;87.88;95998.69;5035569;28;20190;-80
2022/02/25 03:59:37;;;;;;;9.87;2.07;;;;;;;-0.18;88.68;96005.34;5036621;28;20180;-80
2022/02/25 04:02:03;;;;;;;9.03;1.93;;;;;;;-0.16;88.16;96005.28;5035485;28;20219;-80
2022/02/25 04:04:29;;;;;;;6.40;1.80;;;;;;;-0.19;88.20;96003.69;5036146;28;20318;-80
2022/02/25 04:06:54;;;;;;;10.80;2.03;;;;;;;-0.24;88.67;96015.03;5035657;28;20193;-80
2022/02/25 04:09:20;;;;;;;6.03;2.00;;;;;;;-0.17;88.35;96016.41;5052515;28;20186;-80
2022/02/25 04:11:50;;;;;;;8.80;2.33;;;;;;;-0.22;88.06;96026.00;5036775;28;20597;-80
2022/02/25 04:14:18;;;;;;;10.60;2.00;;;;;;;-0.29;88.43;96017.78;5035611;28;20638;-81
2022/02/25 04:16:44;;;;;;;7.70;2.37;;;;;;;-0.19;88.14;96019.00;5035763;28;20174;-80
2022/02/25 04:19:09;;;;;;;11.50;2.63;;;;;;;-0.17;88.25;96021.50;5034831;28;20178;-80
2022/02/25 04:21:35;;;;;;;9.13;2.13;;;;;;;-0.19;88.21;96023.28;5034275;28;20209;-80
2022/02/25 04:24:00;;;;;;;4.73;1.83;;;;;;;-0.23;88.05;96027.72;5035244;28;20177;-80
2022/02/25 04:26:26;;;;;;;11.63;2.10;;;;;;;-0.24;87.93;96026.06;5034987;28;20178;-80
2022/02/25 04:28:51;;;;;;;6.37;2.07;;;;;;;-0.19;88.30;96030.94;5018395;28;20235;-80
2022/02/25 04:31:17;;;;;;;4.93;1.93;;;;;;;-0.22;87.95;96031.91;5034380;28;20551;-80
2022/02/25 04:33:42;;;;;;;11.40;1.90;;;;;;;-0.12;87.78;96037.44;5034879;28;20205;-80
2022/02/25 04:36:08;;;;;;;9.10;2.20;;;;;;;-0.07;87.83;96038.06;5034868;28;20700;-80
2022/02/25 04:38:33;;;;;;;6.77;1.77;;;;;;;-0.07;87.77;96033.78;5035217;28;20186;-80
2022/02/25 04:41:01;;;;;;;7.27;2.17;;;;;;;-0.09;87.83;96044.94;5035879;28;20182;-80
2022/02/25 04:43:27;;;;;;;5.30;1.73;;;;;;;-0.09;87.65;96045.78;5034643;28;20170;-80
2022/02/25 04:45:53;;;;;;;6.40;2.23;;;;;;;-0.11;87.81;96041.63;5017983;28;20186;-80
2022/02/25 04:48:18;;;;;;;6.67;2.50;;;;;;;-0.08;87.49;96038.94;5034517;28;20200;-80
2022/02/25 04:50:43;;;;;;;10.93;2.57;;;;;;;-0.07;87.21;96045.72;5034243;28;20567;-80
2022/02/25 04:53:09;;;;;;;7.87;1.60;;;;;;;-0.03;87.43;96050.59;5033494;28;20378;-80
2022/02/25 04:55:34;;;;;;;9.03;2.33;;;;;;;-0.06;87.83;96048.19;5034270;28;20236;-81
2022/02/25 04:58:00;;;;;;;8.07;2.43;;;;;;;-0.02;87.73;96048.84;5034570;28;20193;-81
2022/02/25 05:00:25;;;;;;;10.03;2.10;;;;;;;-0.04;87.52;96050.66;5034693;28;20231;-80
2022/02/25 05:02:50;;;;;;;5.63;1.33;;;;;;;0.09;87.25;96054.31;5033565;28;20683;-80
2022/02/25 05:05:15;;;;;;;6.57;2.10;;;;;;;0.02;87.49;96055.50;5033924;28;20192;-80
2022/02/25 05:07:41;;;;;;;11.50;2.63;;;;;;;0.08;87.38;96057.75;5034352;28;20189;-79
2022/02/25 05:10:08;;;;;;;10.97;2.00;;;;;;;0.11;87.57;96064.47;5033268;28;20178;-80
2022/02/25 05:12:33;;;;;;;6.50;1.97;;;;;;;0.14;87.79;96066.84;5033826;28;20294;-80
2022/02/25 05:20:26;;;;;;;7.60;2.10;;;;;;;0.14;87.38;96077.91;5044531;28;20629;-81
2022/02/25 05:22:57;;;;;;;6.40;1.90;;;;;;;0.15;87.81;96074.44;5050472;28;20238;-81
2022/02/25 05:25:23;;;;;;;10.47;1.93;;;;;;;0.11;88.02;96072.94;5051452;28;20260;-81
2022/02/25 05:27:50;;;;;;;8.03;2.10;;;;;;;0.14;87.54;96080.44;5034192;28;20185;-81
2022/02/25 05:30:15;;;;;;;14.67;2.70;;;;;;;0.12;86.80;96084.81;5033079;28;20439;-82
2022/02/25 05:32:45;;;;;;;12.90;2.33;;;;;;;0.07;87.13;96079.06;5050403;28;20218;-81
2022/02/25 05:35:11;;;;;;;7.80;2.33;;;;;;;0.05;86.73;96075.78;5051275;28;20276;-80
2022/02/25 05:37:37;;;;;;;8.27;1.97;;;;;;;-0.02;87.04;96084.59;5045868;28;20189;-81
2022/02/25 05:40:04;;;;;;;7.90;2.17;;;;;;;0.09;86.73;96101.97;5032647;28;20305;-81
2022/02/25 05:42:29;;;;;;;6.80;2.03;;;;;;;-0.06;86.84;96095.88;5013666;28;20241;-82
2022/02/25 05:44:55;;;;;;;6.23;2.00;;;;;;;-0.10;87.62;96099.44;5013432;28;20218;-80
2022/02/25 05:47:20;;;;;;;9.90;1.93;;;;;;;-0.22;87.46;96100.84;5038309;28;20184;-81
2022/02/25 05:49:45;;;;;;;6.13;1.93;;;;;;;-0.18;87.33;96110.00;5033469;28;20191;-81
2022/02/25 05:52:10;;;;;;;13.97;2.47;;;;;;;-0.16;87.71;96113.34;5048714;28;20576;-81
2022/02/25 05:54:36;;;;;;;10.50;2.27;;;;;;;-0.25;87.40;96113.75;5066523;28;20299;-82
2022/02/25 05:57:01;;;;;;;12.47;2.63;;;;;;;-0.22;87.80;96113.59;5049043;28;20211;-82
2022/02/25 05:59:26;;;;;;;10.17;2.93;;;;;;;-0.22;86.67;96113.59;5019466;28;20239;-81
2022/02/25 06:01:52;;;;;;;8.70;2.07;;;;;;;-0.23;87.15;96118.78;5052061;28;20212;-80
2022/02/25 06:04:17;;;;;;;8.77;2.80;;;;;;;-0.30;87.21;96121.59;5028758;28;20280;-80
2022/02/25 06:06:42;;;;;;;5.83;2.47;;;;;;;-0.29;87.69;96120.69;5050160;28;20204;-81
2022/02/25 06:09:08;;;;;;;10.43;3.20;;;;;;;-0.40;88.09;96116.97;5032261;28;20192;-80
2022/02/25 06:11:33;;;;;;;9.73;3.00;;;;;;;-0.40;88.49;96127.16;5045268;28;20595;-82
2022/02/25 06:13:58;;;;;;;4.03;2.30;;;;;;;-0.40;88.73;96133.09;5030822;28;20212;-82
2022/02/25 06:16:24;;;;;;;11.40;2.40;;;;;;;-0.44;88.66;96141.81;5034104;28;20359;-83
2022/02/25 06:18:49;;;;;;;18.87;2.70;;;;;;;-0.42;88.86;96147.66;5037270;28;20277;-81
2022/02/25 06:21:14;;;;;;;9.73;1.90;;;;;;;-0.39;88.81;96141.59;5047769;28;20192;-82
2022/02/25 06:23:40;;;;;;;7.40;2.00;;;;;;;-0.39;88.79;96139.03;5051507;28;20589;-82
2022/02/25 06:26:05;;;;;;;6.30;2.17;;;;;;;-0.37;88.44;96144.91;5052588;28;20185;-81
2022/02/25 06:28:31;;;;;;;19.20;2.80;;;;;;;-0.37;89.06;96150.81;5034504;28;20196;-83
2022/02/25 06:30:56;;;;;;;9.23;3.03;;;;;;;-0.39;88.59;96150.06;5035205;28;20188;-83
2022/02/25 06:33:21;;;;;;;11.37;2.23;;;;;;;-0.39;88.60;96144.97;5031622;28;20223;-82
2022/02/25 06:35:48;;;;;;;8.70;2.20;;;;;;;-0.34;88.34;96148.16;5032356;28;20234;-82
2022/02/25 06:38:13;;;;;;;14.47;2.00;;;;;;;-0.36;88.12;96160.13;5018821;28;20190;-81
2022/02/25 06:40:38;;;;;;;6.17;2.03;;;;;;;-0.32;88.38;96171.06;5031383;28;20202;-82
2022/02/25 06:43:04;;;;;;;9.13;2.23;;;;;;;-0.28;87.88;96162.34;5048759;28;20202;-81
2022/02/25 06:45:29;;;;;;;10.73;2.40;;;;;;;-0.29;87.91;96168.34;5056779;28;20780;-81
2022/02/25 06:47:55;;;;;;;8.00;2.40;;;;;;;-0.13;87.04;96171.91;5042848;28;20185;-82
2022/02/25 06:50:20;;;;;;;9.93;3.17;;;;;;;-0.17;86.23;96165.28;5038639;28;20199;-82
2022/02/25 06:52:46;;;;;;;6.40;2.40;;;;;;;-0.06;85.68;96172.47;5037053;28;20217;-82
2022/02/25 06:55:13;;;;;;;7.53;2.50;;;;;;;-0.04;85.58;96175.78;5025182;28;20190;-82
2022/02/25 06:57:40;;;;;;;16.03;2.60;;;;;;;-0.09;85.22;96176.00;5043769;28;20189;-81
2022/02/25 07:00:06;;;;;;;8.67;2.27;;;;;;;0.03;84.93;96184.81;5037419;28;20192;-81
2022/02/25 07:02:31;;;;;;;11.93;2.70;;;;;;;-0.02;84.87;96179.09;5025930;28;20212;-81
2022/02/25 07:04:56;;;;;;;12.80;2.80;;;;;;;-0.03;85.42;96179.97;5044344;28;20185;-82
2022/02/25 07:07:22;;;;;;;8.27;2.43;;;;;;;-0.09;85.33;96180.25;5047154;28;20565;-81
2022/02/25 07:09:47;;;;;;;8.00;3.27;;;;;;;0.01;85.38;96191.72;5041968;28;20190;-82
2022/02/25 07:12:13;;;;;;;14.03;4.43;;;;;;;0.05;85.36;96189.84;5034215;28;20208;-82
2022/02/25 07:14:38;;;;;;;14.83;4.07;;;;;;;0.05;85.47;96195.78;5037393;28;20216;-81
2022/02/25 07:17:04;;;;;;;13.17;3.90;;;;;;;0.17;84.77;96195.22;5052392;28;20195;-81
2022/02/25 07:19:29;;;;;;;13.30;4.03;;;;;;;0.22;84.80;96200.97;5051755;28;20188;-83
2022/02/25 07:21:54;;;;;;;9.73;3.40;;;;;;;0.36;84.61;96194.44;5036131;28;20743;-81
2022/02/25 07:24:20;;;;;;;13.23;3.63;;;;;;;0.35;83.75;96192.75;5068220;28;20215;-82
2022/02/25 07:26:45;;;;;;;10.57;4.43;;;;;;;0.47;83.30;96202.44;5042081;28;20189;-82
2022/02/25 07:29:11;;;;;;;11.57;4.40;;;;;;;0.52;82.63;96203.03;5055625;28;20185;-81
2022/02/25 07:31:38;;;;;;;14.13;3.70;;;;;;;0.55;82.04;96208.00;5034299;28;20241;-80
2022/02/25 07:34:04;;;;;;;15.67;4.40;;;;;;;0.62;82.14;96206.84;5019340;28;20201;-80
2022/02/25 07:36:29;;;;;;;9.90;3.00;;;;;;;0.85;82.12;96216.78;5042464;28;20642;-82
2022/02/25 07:38:55;;;;;;;12.20;2.83;;;;;;;0.97;81.35;96214.56;5033578;28;20185;-81
2022/02/25 07:41:20;;;;;;;13.27;3.03;;;;;;;1.14;80.94;96215.41;5052271;28;20192;-82
2022/02/25 07:43:45;;;;;;;9.67;2.60;;;;;;;1.20;80.26;96221.97;5032919;28;20192;-81
2022/02/25 07:46:11;;;;;;;12.30;3.70;;;;;;;1.26;80.04;96225.97;5035716;28;20189;-82
2022/02/25 07:48:36;;;;;;;11.70;4.27;;;;;;;1.09;80.84;96222.47;5040457;28;20182;-82
2022/02/25 07:51:01;;;;;;;8.83;2.67;;;;;;;1.17;79.63;96227.22;5054297;28;20273;-81
2022/02/25 07:53:30;;;;;;;8.80;3.10;;;;;;;1.26;80.12;96234.47;5050490;28;20295;-81
2022/02/25 07:55:56;;;;;;;9.63;3.00;;;;;;;1.16;79.44;96227.31;5053668;28;20695;-81
2022/02/25 07:58:21;;;;;;;7.40;2.43;;;;;;;1.20;79.83;96244.16;5054315;28;20264;-82
2022/02/25 08:00:46;;;;;;;10.73;2.63;;;;;;;1.11;80.15;96237.75;5052740;28;20269;-83
2022/02/25 08:03:12;;;;;;;8.47;2.37;;;;;;;0.95;80.13;96236.81;5037676;28;20233;-81
2022/02/25 08:05:37;;;;;;;9.30;2.53;;;;;;;0.97;80.74;96232.44;5018021;28;20216;-80
2022/02/25 08:08:05;;;;;;;11.67;2.93;;;;;;;0.96;79.77;96234.19;5051124;28;20188;-77
2022/02/25 08:10:32;;;;;;;10.47;2.00;;;;;;;0.96;79.45;96239.28;5050930;28;20187;-78
2022/02/25 08:12:58;;;;;;;10.33;2.37;;;;;;;1.19;79.09;96237.38;5034984;28;20766;-82
2022/02/25 08:15:23;;;;;;;6.23;1.50;;;;;;;1.17;78.53;96229.78;5032098;28;20269;-84
2022/02/25 08:17:50;;;;;;;11.43;2.43;;;;;;;1.26;79.29;96237.03;5024048;28;20678;-84
2022/02/25 08:20:16;;;;;;;6.50;1.60;;;;;;;1.44;77.94;96235.31;5027063;28;20204;-82
2022/02/25 08:22:43;;;;;;;6.70;2.23;;;;;;;1.47;77.04;96236.88;5045147;28;20202;-82
2022/02/25 08:25:09;;;;;;;5.67;1.60;;;;;;;1.46;78.06;96245.47;5037315;28;20181;-83
2022/02/25 08:27:35;;;;;;;7.77;1.80;;;;;;;1.27;77.52;96241.25;5059803;28;20209;-81
2022/02/25 08:30:00;;;;;;;9.57;2.13;;;;;;;1.44;77.87;96244.72;5021196;28;20232;-82
2022/02/25 08:32:26;;;;;;;7.40;1.40;;;;;;;1.48;76.75;96249.59;5019912;28;20198;-83
2022/02/25 08:34:51;;;;;;;14.00;2.13;;;;;;;1.63;76.55;96248.84;5021004;28;20270;-82
2022/02/25 08:37:16;;;;;;;5.90;1.70;;;;;;;1.88;76.05;96247.63;5021380;28;20186;-83
2022/02/25 08:39:42;;;;;;;10.07;2.00;;;;;;;1.97;75.75;96247.97;5040609;28;20269;-82
2022/02/25 08:42:07;;;;;;;7.97;1.70;;;;;;;1.80;75.08;96244.63;5030438;28;20214;-81
2022/02/25 08:44:33;;;;;;;8.37;2.10;;;;;;;1.94;75.09;96243.03;5034724;28;20177;-83
2022/02/25 08:46:58;;;;;;;8.50;2.00;;;;;;;1.90;74.10;96246.63;5028953;28;20182;-81
2022/02/25 08:49:23;;;;;;;6.17;1.50;;;;;;;2.04;73.93;96250.22;5047575;28;20541;-84
2022/02/25 08:51:49;;;;;;;5.33;1.43;;;;;;;2.32;73.74;96247.88;5023277;28;20244;-82
2022/02/25 08:54:16;;;;;;;5.53;1.50;;;;;;;2.24;73.56;96243.16;5030538;28;20209;-84
2022/02/25 08:56:42;;;;;;;10.60;1.80;;;;;;;2.02;73.30;96246.91;5026526;28;20186;-85
2022/02/25 08:59:07;;;;;;;8.50;1.90;;;;;;;2.08;73.09;96238.91;5026554;28;20213;-85
2022/02/25 09:01:33;;;;;;;8.27;1.90;;;;;;;2.14;72.05;96251.41;5028756;28;20212;-83
2022/02/25 09:04:01;;;;;;;4.37;1.97;;;;;;;2.05;72.14;96251.88;5028033;28;20257;-82
2022/02/25 09:06:28;;;;;;;11.43;1.57;;;;;;;1.88;73.41;96258.69;5040420;28;20194;-83
2022/02/25 09:08:53;;;;;;;6.23;2.00;;;;;;;2.04;72.83;96248.50;5039751;28;20204;-82
2022/02/25 09:11:19;;;;;;;9.30;1.70;;;;;;;2.17;73.68;96253.81;5051569;28;20596;-82
2022/02/25 09:13:45;;;;;;;8.23;2.07;;;;;;;2.20;72.68;96243.38;5032338;28;20206;-82
2022/02/25 09:16:11;;;;;;;6.43;1.57;;;;;;;2.09;72.40;96248.25;5030627;28;20186;-82
2022/02/25 09:18:36;;;;;;;9.87;1.60;;;;;;;1.97;72.29;96244.59;5047353;28;20192;-82
2022/02/25 09:21:02;;;;;;;5.53;1.40;;;;;;;1.86;72.18;96254.56;5055798;28;20222;-81
2022/02/25 09:23:27;;;;;;;7.83;1.50;;;;;;;2.23;72.14;96256.06;5032659;28;20202;-82
2022/02/25 09:25:53;;;;;;;9.93;1.50;;;;;;;2.68;71.58;96251.97;5034601;28;20178;-81
2022/02/25 09:28:18;;;;;;;6.53;1.67;;;;;;;2.75;70.06;96255.88;5035948;28;20223;-82
2022/02/25 09:30:44;;;;;;;7.57;1.70;;;;;;;2.84;69.69;96261.31;5052824;28;20186;-82
2022/02/25 09:33:09;;;;;;;8.13;1.50;;;;;;;2.93;69.17;96260.00;5031062;28;20634;-82
2022/02/25 09:35:35;;;;;;;12.20;2.10;;;;;;;2.88;69.25;96258.59;5039489;28;20737;-83
2022/02/25 09:38:01;;;;;;;6.33;1.83;;;;;;;2.71;69.70;96254.38;5042621;28;20229;-83
2022/02/25 09:40:26;;;;;;;8.97;1.83;;;;;;;2.93;68.82;96260.00;5058874;28;20252;-82
2022/02/25 09:42:52;;;;;;;9.50;2.20;;;;;;;2.48;70.09;96258.16;5053110;28;20265;-81
2022/02/25 09:45:17;;;;;;;9.50;2.20;;;;;;;2.80;69.40;96259.00;5062462;28;20201;-83
2022/02/25 09:47:43;;;;;;;10.50;3.00;;;;;;;2.70;69.18;96260.41;5030534;28;20246;-82
2022/02/25 09:50:11;;;;;;;8.40;2.20;;;;;;;2.68;68.77;96260.50;5052598;28;20231;-82
2022/02/25 09:52:37;;;;;;;7.10;1.40;;;;;;;2.68;69.30;96259.66;5041925;28;20699;-83
2022/02/25 09:55:08;;;;;;;9.77;2.10;;;;;;;2.82;69.30;96258.00;5040315;28;20257;-83
2022/02/25 09:57:33;;;;;;;7.73;1.90;;;;;;;2.93;68.88;96264.31;5033810;28;20191;-82
2022/02/25 09:59:59;;;;;;;5.97;2.30;;;;;;;2.87;68.83;96270.59;5038382;28;20190;-83
2022/02/25 10:02:58;;;;;;;9.27;1.90;;;;;;;3.03;68.20;96273.97;5027919;28;20208;-83
2022/02/25 10:05:26;;;;;;;7.10;1.53;;;;;;;3.17;69.30;96268.06;4997511;28;20190;-82
2022/02/25 10:07:52;;;;;;;6.90;1.53;;;;;;;3.53;68.54;96269.50;5011777;28;20194;-82
2022/02/25 10:10:26;;;;;;;6.37;1.87;;;;;;;3.50;67.09;96270.50;5013279;28;20186;-81
2022/02/25 10:13:02;;;;;;;10.43;3.43;;;;;;;3.56;68.04;96277.88;5007313;28;20220;-82
2022/02/25 10:15:29;;;;;;;11.13;2.27;;;;;;;3.43;67.82;96271.75;5013702;28;20706;-83
2022/02/25 10:18:05;;;;;;;7.67;1.77;;;;;;;3.36;67.07;96273.84;5001042;28;20212;-81
2022/02/25 10:20:32;;;;;;;6.60;2.00;;;;;;;3.13;67.65;96271.72;5014960;28;20692;-82
2022/02/25 10:22:58;;;;;;;10.50;2.10;;;;;;;3.24;67.92;96268.56;5030310;28;20237;-82
2022/02/25 10:25:25;;;;;;;6.67;1.87;;;;;;;3.38;68.40;96271.19;5007311;28;20214;-82
2022/02/25 10:27:51;;;;;;;9.67;1.60;;;;;;;3.31;67.87;96275.00;5015673;28;20191;-82
2022/02/25 10:30:19;;;;;;;7.63;1.60;;;;;;;3.05;67.40;96272.16;5005479;28;20190;-83
2022/02/25 10:32:45;;;;;;;11.20;2.27;;;;;;;3.09;67.67;96276.22;5011735;28;20215;-83
2022/02/25 10:35:27;;;;;;;8.57;1.77;;;;;;;3.00;66.73;96263.88;5007434;28;20618;-82
2022/02/25 10:37:58;;;;;;;6.83;1.67;;;;;;;3.08;67.50;96283.97;4997221;28;20190;-82
2022/02/25 10:40:24;;;;;;;6.60;1.70;;;;;;;3.00;65.24;96276.69;5021502;28;20272;-82
2022/02/25 10:42:50;;;;;;;7.43;1.60;;;;;;;2.66;66.21;96274.31;5048254;28;20291;-83
2022/02/25 10:45:38;;;;;;;8.13;2.17;;;;;;;2.89;66.95;96289.28;5016452;28;20186;-82
2022/02/25 10:48:07;;;;;;;11.23;2.33;;;;;;;2.84;65.69;96283.59;5043843;28;20597;-82
2022/02/25 10:50:45;;;;;;;7.60;2.20;;;;;;;2.96;66.33;96285.47;5038733;28;20198;-82
2022/02/25 10:53:10;;;;;;;6.47;2.03;;;;;;;3.20;66.08;96279.94;5032470;28;20213;-83
2022/02/25 10:55:35;;;;;;;12.73;2.63;;;;;;;3.50;65.98;96270.50;5028496;28;20182;-83
2022/02/25 10:58:01;;;;;;;8.23;1.73;;;;;;;3.77;64.63;96280.13;5025991;28;20183;-84
2022/02/25 11:00:27;;;;;;;6.13;1.53;;;;;;;3.96;63.59;96273.81;5035660;28;20186;-85
2022/02/25 11:02:56;;;;;;;8.63;1.83;;;;;;;4.03;62.80;96276.84;5033130;28;20213;-85
2022/02/25 11:05:35;;;;;;;4.57;1.60;;;;;;;3.89;61.78;96276.84;5033344;28;20200;-85
2022/02/25 11:08:03;;;;;;;8.33;1.83;;;;;;;3.78;62.01;96274.88;5041215;28;20191;-84
2022/02/25 11:10:30;;;;;;;10.97;1.70;;;;;;;3.70;61.74;96277.88;5033305;28;20256;-84
2022/02/25 11:12:58;;;;;;;8.80;1.83;;;;;;;3.93;61.73;96281.72;5036506;28;20712;-84
2022/02/25 11:15:28;;;;;;;5.43;1.30;;;;;;;4.05;62.49;96280.16;5020995;28;20213;-84
2022/02/25 11:17:54;;;;;;;6.80;1.57;;;;;;;3.75;60.25;96271.66;5039172;28;20178;-85
2022/02/25 11:20:25;;;;;;;7.77;1.50;;;;;;;3.94;60.52;96273.09;5049121;28;20183;-85
2022/02/25 11:22:53;;;;;;;5.33;1.30;;;;;;;3.82;59.41;96268.66;5019410;28;20199;-85
2022/02/25 11:25:19;;;;;;;7.73;1.47;;;;;;;4.12;59.32;96273.75;5040181;28;20186;-85
2022/02/25 11:27:47;;;;;;;8.17;1.90;;;;;;;4.33;58.32;96265.66;5025741;28;20664;-83
2022/02/25 11:30:42;;;;;;;5.13;1.47;;;;;;;4.35;58.20;96269.00;5028032;28;20201;-82
2022/02/25 11:33:11;;;;;;;7.17;2.00;;;;;;;3.95;56.94;96271.34;5031286;28;20239;-84
2022/02/25 11:35:59;;;;;;;8.27;1.90;;;;;;;4.25;58.72;96264.41;5035831;28;20243;-84
2022/02/25 11:38:28;;;;;;;11.57;1.90;;;;;;;4.30;58.64;96266.69;5019786;28;20302;-84